Time;durP1;ratioP1;P1;durP2;ratioP2;P2;SDS_P1;SDS_P2;PMS_P1;PMS_P2;Temp;Humidity;BMP_temperature;BMP_pressure;BME280_temperature;BME280_humidity;BME280_pressure;Samples;Min_cycle;Max_cycle;Signal;HPM_P1;HPM_P2
2022/07/18 00:01:50;;;;;;;7.75;6.38;;;;;;;12.51;100.00;163835.16;5032317;28;20022;-62
2022/07/18 00:04:15;;;;;;;9.63;5.68;;;;;;;12.47;100.00;163824.38;5031837;28;20037;-61
2022/07/18 00:06:41;;;;;;;9.95;7.43;;;;;;;12.43;100.00;163813.53;5031535;28;20060;-62
2022/07/18 00:09:06;;;;;;;6.07;4.97;;;;;;;12.36;100.00;163797.34;5031768;28;20416;-62
2022/07/18 00:11:31;;;;;;;7.57;4.68;;;;;;;12.33;100.00;163787.88;5031237;28;20042;-62
2022/07/18 00:13:57;;;;;;;9.05;5.03;;;;;;;12.32;100.00;163785.16;5032853;28;20022;-62
2022/07/18 00:16:23;;;;;;;11.48;5.85;;;;;;;12.30;100.00;163779.75;5030486;28;20106;-62
2022/07/18 00:18:49;;;;;;;5.50;4.25;;;;;;;12.30;100.00;163781.13;5028367;28;20022;-62
2022/07/18 00:21:14;;;;;;;6.88;5.55;;;;;;;12.30;100.00;163781.13;5031163;28;20091;-61
2022/07/18 00:23:40;;;;;;;7.53;5.15;;;;;;;12.32;100.00;163786.50;5032738;28;20022;-61
2022/07/18 00:26:05;;;;;;;8.23;5.35;;;;;;;12.30;100.00;163781.13;5017591;28;20061;-61
2022/07/18 00:28:30;;;;;;;9.63;5.53;;;;;;;12.26;100.00;163770.28;5012935;28;20120;-62
2022/07/18 00:30:56;;;;;;;12.10;6.35;;;;;;;12.24;100.00;163764.91;5018505;28;20038;-62
2022/07/18 00:33:21;;;;;;;6.95;5.07;;;;;;;12.22;100.00;163759.50;5013111;28;20049;-61
2022/07/18 00:35:47;;;;;;;8.63;5.30;;;;;;;12.22;100.00;163759.50;5011110;28;20061;-62
2022/07/18 00:38:12;;;;;;;6.60;5.38;;;;;;;12.20;100.00;163754.09;5020284;28;20029;-61
2022/07/18 00:40:37;;;;;;;10.43;4.93;;;;;;;12.19;100.00;163751.38;5030729;28;20038;-61
2022/07/18 00:43:03;;;;;;;10.90;4.70;;;;;;;12.18;100.00;163748.66;5032321;28;20033;-61
2022/07/18 00:45:28;;;;;;;8.98;5.75;;;;;;;12.14;100.00;163739.22;5030790;28;20488;-61
2022/07/18 00:47:54;;;;;;;5.47;4.10;;;;;;;12.09;100.00;163724.38;5030771;28;20033;-61
2022/07/18 00:50:20;;;;;;;7.47;5.90;;;;;;;12.10;100.00;163727.09;5017373;28;20046;-62
2022/07/18 00:52:46;;;;;;;11.13;6.80;;;;;;;12.10;100.00;163727.09;5013571;28;20036;-62
2022/07/18 00:55:12;;;;;;;11.55;6.03;;;;;;;12.05;100.00;163714.94;5030424;28;20116;-62
2022/07/18 00:57:39;;;;;;;6.10;5.32;;;;;;;12.00;100.00;163702.75;5031786;28;20029;-62
2022/07/18 01:02:52;;;;;;;8.63;5.55;;;;;;;11.94;100.00;163686.50;5030516;28;20116;-62
2022/07/18 01:05:18;;;;;;;6.45;5.18;;;;;;;11.89;100.00;163672.97;5010327;28;20472;-62
2022/07/18 01:07:43;;;;;;;8.30;5.85;;;;;;;11.90;100.00;163675.69;5012271;28;20105;-62
2022/07/18 01:10:09;;;;;;;12.75;5.82;;;;;;;11.86;100.00;163666.22;5010427;28;20049;-62
2022/07/18 01:12:34;;;;;;;9.95;5.93;;;;;;;11.85;100.00;163663.50;5011781;28;20068;-63
2022/07/18 01:15:00;;;;;;;9.38;5.72;;;;;;;11.83;100.00;163658.16;5028340;28;20044;-63
2022/07/18 01:17:25;;;;;;;12.07;5.90;;;;;;;11.80;100.00;163648.69;5019857;28;20030;-61
2022/07/18 01:19:50;;;;;;;8.30;5.20;;;;;;;11.77;100.00;163640.56;5010115;28;20038;-61
2022/07/18 01:22:19;;;;;;;6.78;4.68;;;;;;;11.72;100.00;163628.41;5011718;28;20052;-61
2022/07/18 01:24:45;;;;;;;8.93;5.40;;;;;;;11.77;100.00;163640.56;5010873;28;20386;-61
2022/07/18 01:27:15;;;;;;;7.75;5.00;;;;;;;11.74;100.00;163633.81;5011173;28;20092;-61
2022/07/18 01:29:41;;;;;;;7.47;5.35;;;;;;;11.69;100.00;163620.31;5014050;28;20050;-61
2022/07/18 01:32:08;;;;;;;8.38;5.97;;;;;;;11.63;100.00;163605.47;5031400;28;20075;-61
2022/07/18 01:34:33;;;;;;;9.73;4.88;;;;;;;11.59;100.00;163594.63;5029737;28;20109;-61
2022/07/18 01:37:00;;;;;;;10.60;6.22;;;;;;;11.58;100.00;163591.91;5031406;28;20380;-61
2022/07/18 01:39:25;;;;;;;11.18;6.03;;;;;;;11.59;100.00;163594.63;5029958;28;20105;-60
2022/07/18 01:41:58;;;;;;;8.13;5.75;;;;;;;11.58;100.00;163591.91;5022627;28;20033;-60
2022/07/18 01:44:25;;;;;;;6.82;5.13;;;;;;;11.53;100.00;163579.81;5010131;28;20093;-61
2022/07/18 01:46:50;;;;;;;7.05;5.55;;;;;;;11.49;100.00;163567.63;5029487;28;20508;-61
2022/07/18 01:49:16;;;;;;;7.18;5.18;;;;;;;11.47;100.00;163562.22;5030800;28;20044;-61
2022/07/18 01:51:48;;;;;;;10.38;6.28;;;;;;;11.44;100.00;163555.47;5030084;28;20037;-62
2022/07/18 01:54:13;;;;;;;9.75;7.45;;;;;;;11.41;100.00;163548.75;5031073;28;20053;-63
2022/07/18 01:56:39;;;;;;;7.65;5.18;;;;;;;11.39;100.00;163543.31;5029352;28;20578;-62
2022/07/18 01:59:04;;;;;;;8.23;6.30;;;;;;;11.38;100.00;163540.63;5025933;28;20604;-62
2022/07/18 02:01:30;;;;;;;14.77;6.57;;;;;;;11.37;100.00;163536.56;5031557;28;20041;-62
2022/07/18 02:03:55;;;;;;;8.60;5.93;;;;;;;11.35;100.00;163532.53;5035197;28;20048;-61
2022/07/18 02:06:20;;;;;;;10.05;6.15;;;;;;;11.34;100.00;163529.84;5033634;28;20059;-62
2022/07/18 02:08:46;;;;;;;9.75;6.78;;;;;;;11.30;100.00;163517.66;5035119;28;20025;-62
2022/07/18 02:11:11;;;;;;;7.30;5.43;;;;;;;11.26;100.00;163509.56;5033190;28;20041;-63
2022/07/18 02:13:37;;;;;;;9.15;5.32;;;;;;;11.25;100.00;163505.50;5027010;28;20026;-62
2022/07/18 02:16:03;;;;;;;8.48;6.72;;;;;;;11.24;100.00;163502.81;5013895;28;20042;-62
2022/07/18 02:18:32;;;;;;;10.45;5.20;;;;;;;11.22;100.00;163497.38;5019766;28;20026;-59
2022/07/18 02:20:57;;;;;;;;;;;;;;;11.16;100.00;163481.19;5034206;28;20072;-63
2022/07/18 02:23:22;;;;;;;8.35;5.60;;;;;;;11.10;100.00;163467.72;5034999;28;19949;-62
2022/07/18 02:25:47;;;;;;;11.10;6.60;;;;;;;11.02;100.00;163446.09;5033210;28;20037;-62
2022/07/18 02:28:13;;;;;;;13.00;5.45;;;;;;;10.99;100.00;163436.66;5034027;28;20060;-62
2022/07/18 02:30:38;;;;;;;7.47;5.40;;;;;;;10.97;100.00;163432.63;5033621;28;20041;-62
2022/07/18 02:33:04;;;;;;;7.40;6.55;;;;;;;10.98;100.00;163435.31;5033492;28;20025;-63
2022/07/18 02:35:29;;;;;;;7.45;5.60;;;;;;;11.00;100.00;163440.69;5033335;28;20037;-59
2022/07/18 02:37:54;;;;;;;11.10;5.57;;;;;;;10.95;100.00;163427.19;5034016;28;20071;-59
2022/07/18 02:40:20;;;;;;;11.00;7.03;;;;;;;10.92;100.00;163419.06;5032639;28;20400;-61
2022/07/18 02:42:45;;;;;;;8.73;6.80;;;;;;;10.87;100.00;163405.59;5033792;28;20029;-61
2022/07/18 02:45:11;;;;;;;8.57;7.28;;;;;;;10.91;100.00;163416.38;5030461;28;20045;-61
2022/07/18 02:47:36;;;;;;;10.40;6.43;;;;;;;10.92;100.00;163419.06;5030962;28;20029;-61
2022/07/18 02:50:03;;;;;;;12.90;8.25;;;;;;;10.91;100.00;163417.75;5031592;28;20099;-61
2022/07/18 02:52:29;;;;;;;11.63;7.65;;;;;;;10.88;100.00;163408.28;5034247;28;20041;-61
2022/07/18 02:54:56;;;;;;;7.35;5.18;;;;;;;10.86;100.00;163402.88;5032844;28;20033;-62
2022/07/18 02:57:22;;;;;;;12.05;6.03;;;;;;;10.87;100.00;163405.59;5033966;28;20056;-61
2022/07/18 02:59:47;;;;;;;10.30;5.80;;;;;;;10.84;100.00;163397.47;5031479;28;20034;-62
2022/07/18 03:02:12;;;;;;;8.20;5.20;;;;;;;10.78;100.00;163382.66;5013897;28;20018;-62
2022/07/18 03:04:38;;;;;;;8.95;5.80;;;;;;;10.72;100.00;163367.78;5029447;28;20030;-61
2022/07/18 03:07:03;;;;;;;9.50;5.43;;;;;;;10.69;100.00;163359.66;5034239;28;20381;-62
2022/07/18 03:09:30;;;;;;;9.77;5.35;;;;;;;10.68;100.00;163357.03;5025771;28;20030;-62
2022/07/18 03:11:56;;;;;;;6.63;5.80;;;;;;;10.65;100.00;163348.91;5013929;28;20153;-61
2022/07/18 03:14:22;;;;;;;12.15;5.68;;;;;;;10.69;100.00;163359.66;5017802;28;20030;-62
2022/07/18 03:16:48;;;;;;;5.80;5.05;;;;;;;10.68;100.00;163357.03;5033742;28;20071;-62
2022/07/18 03:19:13;;;;;;;11.82;6.30;;;;;;;10.67;100.00;163354.31;5018149;28;20026;-61
2022/07/18 03:21:38;;;;;;;7.82;6.15;;;;;;;10.64;100.00;163346.19;5012832;28;20053;-61
2022/07/18 03:24:04;;;;;;;7.28;5.47;;;;;;;10.61;100.00;163338.13;5013573;28;20030;-61
2022/07/18 03:26:30;;;;;;;9.07;5.47;;;;;;;10.60;100.00;163335.41;5012463;28;20078;-61
2022/07/18 03:28:55;;;;;;;7.25;5.47;;;;;;;10.57;100.00;163328.66;5014393;28;20034;-61
2022/07/18 03:31:21;;;;;;;11.15;6.80;;;;;;;10.57;100.00;163327.28;5011756;28;20046;-61
2022/07/18 03:33:46;;;;;;;5.78;4.68;;;;;;;10.56;100.00;163324.59;5023432;28;20029;-61
2022/07/18 03:36:11;;;;;;;5.85;5.30;;;;;;;10.56;100.00;163324.59;5031874;28;20045;-62
2022/07/18 03:38:37;;;;;;;15.80;7.85;;;;;;;10.54;100.00;163320.56;5031348;28;20032;-61
2022/07/18 03:41:03;;;;;;;8.25;6.30;;;;;;;10.55;100.00;163321.88;5032075;28;20072;-61
2022/07/18 03:43:29;;;;;;;11.75;7.50;;;;;;;10.55;100.00;163321.88;5033368;28;20025;-61
2022/07/18 03:45:54;;;;;;;9.68;5.80;;;;;;;10.57;100.00;163327.28;5031349;28;20056;-61
2022/07/18 03:48:19;;;;;;;12.00;7.22;;;;;;;10.55;100.00;163321.88;5032225;28;20038;-61
2022/07/18 03:50:45;;;;;;;12.05;6.95;;;;;;;10.52;100.00;163313.81;5030020;28;20072;-61
2022/07/18 03:53:11;;;;;;;10.77;6.70;;;;;;;10.48;100.00;163304.38;5023883;28;20620;-62
2022/07/18 03:55:36;;;;;;;9.00;5.63;;;;;;;10.46;100.00;163300.28;5020520;28;20490;-63
2022/07/18 03:58:02;;;;;;;8.20;6.03;;;;;;;10.43;100.00;163292.22;5022661;28;20025;-63
2022/07/18 04:00:27;;;;;;;6.28;5.50;;;;;;;10.42;100.00;163289.50;5020175;28;20049;-62
2022/07/18 04:02:53;;;;;;;21.25;5.32;;;;;;;10.44;100.00;163294.91;5024021;28;20032;-63
2022/07/18 04:05:18;;;;;;;12.75;5.93;;;;;;;10.46;100.00;163300.28;5019326;28;20038;-62
2022/07/18 04:07:43;;;;;;;15.55;7.03;;;;;;;10.49;100.00;163307.06;5021092;28;20033;-62
2022/07/18 04:10:10;;;;;;;9.60;6.90;;;;;;;10.48;100.00;163304.38;5021193;28;20042;-62
2022/07/18 04:12:48;;;;;;;7.75;6.95;;;;;;;10.48;100.00;163305.69;5021526;28;20026;-62
2022/07/18 04:15:13;;;;;;;8.38;5.53;;;;;;;10.47;100.00;163301.66;5019675;28;20116;-63
2022/07/18 04:17:39;;;;;;;9.35;5.78;;;;;;;10.48;100.00;163305.69;5019583;28;20112;-62
2022/07/18 04:20:05;;;;;;;7.45;6.10;;;;;;;10.51;100.00;163311.09;5022023;28;20061;-62
2022/07/18 04:22:30;;;;;;;7.68;5.82;;;;;;;10.48;100.00;163304.38;5021557;28;20481;-62
2022/07/18 04:24:55;;;;;;;8.98;6.90;;;;;;;10.57;100.00;163327.28;5021631;28;20504;-62
2022/07/18 04:27:20;;;;;;;8.13;6.00;;;;;;;10.63;100.00;163343.50;5020998;28;20112;-64
2022/07/18 04:29:46;;;;;;;7.43;6.00;;;;;;;10.68;100.00;163355.63;5021316;28;20091;-64
2022/07/18 04:32:11;;;;;;;6.70;6.00;;;;;;;10.71;100.00;163365.09;5022417;28;20028;-63
2022/07/18 04:34:36;;;;;;;8.63;6.43;;;;;;;10.76;100.00;163378.56;5020424;28;20029;-63
2022/07/18 04:37:02;;;;;;;8.00;6.07;;;;;;;10.83;100.00;163394.81;5021814;28;20018;-63
2022/07/18 04:39:27;;;;;;;8.65;6.70;;;;;;;10.90;100.00;163415.03;5019872;28;20021;-63
2022/07/18 04:41:52;;;;;;;6.55;5.15;;;;;;;11.00;100.00;163440.69;5022990;28;20018;-63
2022/07/18 04:44:18;;;;;;;6.90;5.07;;;;;;;11.08;100.00;163462.28;5020892;28;20021;-63
2022/07/18 04:46:43;;;;;;;11.15;6.72;;;;;;;11.16;100.00;163482.56;5020182;28;20034;-64
2022/07/18 04:49:09;;;;;;;11.85;6.78;;;;;;;11.25;100.00;163506.84;5021817;28;20497;-63
2022/07/18 04:51:34;;;;;;;5.68;4.85;;;;;;;11.38;100.00;163539.28;5020192;28;20103;-63
2022/07/18 04:53:59;;;;;;;7.32;6.15;;;;;;;11.53;100.00;163578.41;5019620;28;20014;-60
2022/07/18 04:56:25;;;;;;;7.72;5.03;;;;;;;11.72;100.00;163628.41;5017594;28;20052;-65
2022/07/18 04:58:50;;;;;;;6.60;5.28;;;;;;;11.89;100.00;163672.97;5022336;28;20075;-59
2022/07/18 05:01:15;;;;;;;7.88;4.50;;;;;;;12.09;100.00;163725.72;5019278;28;20037;-59
2022/07/18 05:03:41;;;;;;;4.75;3.65;;;;;;;12.31;100.00;163783.84;5021365;28;20033;-59
2022/07/18 05:06:06;;;;;;;5.70;4.13;;;;;;;12.53;100.00;163840.59;5019722;28;20401;-59
2022/07/18 05:08:31;;;;;;;6.03;3.88;;;;;;;12.79;100.00;163909.53;5016676;28;20049;-59
2022/07/18 05:10:57;;;;;;;5.50;3.72;;;;;;;13.00;100.00;163964.91;5020198;28;20501;-58
2022/07/18 05:13:22;;;;;;;4.20;3.50;;;;;;;13.17;100.00;164008.19;5018719;28;20026;-66
2022/07/18 05:15:48;;;;;;;7.75;3.60;;;;;;;13.30;100.00;164043.31;5019130;28;20037;-65
2022/07/18 05:18:13;;;;;;;4.53;3.33;;;;;;;13.49;100.00;164092.06;5022049;28;20025;-64
2022/07/18 05:20:38;;;;;;;3.72;2.97;;;;;;;13.64;100.00;164132.63;5019333;28;20061;-64
2022/07/18 05:23:04;;;;;;;8.50;3.75;;;;;;;13.79;100.00;164170.50;5017290;28;20499;-65
2022/07/18 05:25:29;;;;;;;9.80;3.13;;;;;;;13.96;100.00;164216.47;5018405;28;20048;-65
2022/07/18 05:27:54;;;;;;;4.43;2.78;;;;;;;14.12;100.00;164257.03;5019857;28;20053;-64
2022/07/18 05:30:22;;;;;;;3.75;2.78;;;;;;;14.30;100.00;164304.38;5018325;28;20054;-64
2022/07/18 05:32:49;;;;;;;7.75;2.85;;;;;;;14.46;100.00;164344.97;5020148;28;20484;-64
2022/07/18 05:35:15;;;;;;;5.07;2.38;;;;;;;14.68;100.00;164403.22;5015264;28;20457;-65
2022/07/18 05:37:41;;;;;;;9.07;2.38;;;;;;;14.90;100.00;164462.78;5018773;28;20541;-65
2022/07/18 05:40:09;;;;;;;6.65;3.05;;;;;;;15.11;100.00;164516.91;5018885;28;20057;-64
2022/07/18 05:42:35;;;;;;;3.42;2.35;;;;;;;15.32;100.00;164571.03;5020622;28;20044;-64
2022/07/18 05:45:00;;;;;;;7.85;2.35;;;;;;;15.52;100.00;164625.22;5015629;28;20041;-64
2022/07/18 05:47:25;;;;;;;6.63;2.72;;;;;;;15.69;100.00;164668.50;5020668;28;20041;-65
2022/07/18 05:49:51;;;;;;;5.55;3.00;;;;;;;15.89;100.00;164720.03;5017482;28;20038;-63
2022/07/18 05:52:16;;;;;;;4.50;2.00;;;;;;;16.01;100.00;164752.53;5021508;28;20022;-63
2022/07/18 05:54:42;;;;;;;4.28;2.65;;;;;;;16.14;100.00;164787.72;5028703;28;20037;-63
2022/07/18 05:57:07;;;;;;;7.63;3.25;;;;;;;16.29;100.00;164825.63;5027765;28;20088;-64
2022/07/18 05:59:32;;;;;;;4.70;2.60;;;;;;;16.47;100.00;164873.03;5009525;28;20044;-64
2022/07/18 06:01:58;;;;;;;4.38;2.78;;;;;;;16.74;100.00;164944.84;5011111;28;20030;-64
2022/07/18 06:04:23;;;;;;;8.45;3.33;;;;;;;17.04;100.00;165023.47;5013952;28;20037;-64
2022/07/18 06:06:49;;;;;;;4.72;2.35;;;;;;;17.33;100.00;165099.34;5030423;28;20021;-64
2022/07/18 06:09:16;;;;;;;4.05;2.20;;;;;;;17.62;100.00;165173.91;5012704;28;20052;-64
2022/07/18 06:11:41;;;;;;;4.78;2.55;;;;;;;17.90;100.00;165248.47;5009420;28;20037;-61
2022/07/18 06:14:07;;;;;;;4.55;3.55;;;;;;;18.11;100.00;165302.75;5010522;28;20111;-60
2022/07/18 06:16:32;;;;;;;6.18;2.25;;;;;;;18.37;100.00;165373.22;5009202;28;20050;-60
2022/07/18 06:18:58;;;;;;;5.10;2.15;;;;;;;18.47;100.00;165397.66;5011420;28;20029;-60
2022/07/18 06:21:23;;;;;;;3.58;2.40;;;;;;;18.64;100.00;165443.78;5028160;28;20064;-62
2022/07/18 06:23:49;;;;;;;7.70;2.22;;;;;;;18.69;100.00;165457.31;5029706;28;20025;-58
2022/07/18 06:26:14;;;;;;;8.63;2.58;;;;;;;18.79;100.00;165481.75;5017516;28;20502;-59
2022/07/18 06:28:39;;;;;;;2.78;2.03;;;;;;;18.86;100.00;165502.06;5010465;28;20030;-59
2022/07/18 06:31:05;;;;;;;3.47;2.65;;;;;;;18.97;100.00;165530.59;5008072;28;20049;-59
2022/07/18 06:33:30;;;;;;;4.15;2.10;;;;;;;19.02;100.00;165544.16;5014468;28;20074;-59
2022/07/18 06:35:57;;;;;;;8.43;2.10;;;;;;;19.05;100.00;165549.59;5027904;28;20095;-59
2022/07/18 06:38:22;;;;;;;2.85;2.10;;;;;;;19.16;100.00;165579.47;5026519;28;20044;-59
2022/07/18 06:40:48;;;;;;;5.63;2.95;;;;;;;19.36;100.00;165631.00;5023617;28;20038;-59
2022/07/18 06:43:18;;;;;;;7.38;1.98;;;;;;;19.69;100.00;165717.84;5030576;28;20026;-59
2022/07/18 06:45:44;;;;;;;8.20;2.53;;;;;;;20.36;100.00;165894.34;5029703;28;20113;-59
2022/07/18 06:48:10;;;;;;;7.30;2.13;;;;;;;20.94;100.00;166046.44;5032297;28;20032;-59
2022/07/18 06:50:35;;;;;;;11.38;2.47;;;;;;;21.33;100.00;166149.63;5032976;28;20041;-59
2022/07/18 06:53:00;;;;;;;7.85;3.03;;;;;;;21.66;100.00;166236.59;5015621;28;20030;-59
2022/07/18 06:55:26;;;;;;;3.50;2.28;;;;;;;21.89;100.00;166296.34;5013031;28;20042;-59
2022/07/18 06:57:51;;;;;;;7.30;2.20;;;;;;;22.16;100.00;166368.38;5014777;28;20018;-59
2022/07/18 07:00:16;;;;;;;8.32;2.33;;;;;;;22.52;100.00;166462.19;5012792;28;20034;-59
2022/07/18 07:02:47;;;;;;;4.70;1.65;;;;;;;22.74;100.00;166522.00;5014332;28;20022;-59
2022/07/18 07:05:14;;;;;;;3.50;1.73;;;;;;;23.07;100.00;166608.94;5012775;28;20524;-59
2022/07/18 07:07:40;;;;;;;6.43;2.47;;;;;;;23.36;100.00;166685.13;5020332;28;20033;-59
2022/07/18 07:10:06;;;;;;;4.40;1.90;;;;;;;23.48;100.00;166715.03;5026462;28;20042;-59
2022/07/18 07:12:40;;;;;;;8.50;2.05;;;;;;;23.57;100.00;166739.47;5020697;28;20389;-59
2022/07/18 07:15:07;;;;;;;7.25;2.05;;;;;;;23.45;100.00;166709.59;5012267;28;20062;-59
2022/07/18 07:17:32;;;;;;;8.10;1.90;;;;;;;23.41;100.00;166698.75;5014019;28;20057;-59
2022/07/18 07:19:58;;;;;;;10.30;2.90;;;;;;;23.34;100.00;166678.31;5022130;28;20048;-58
2022/07/18 07:22:23;;;;;;;11.68;3.47;;;;;;;23.27;100.00;166660.69;5033358;28;20033;-58
2022/07/18 07:24:49;;;;;;;10.32;1.75;;;;;;;23.40;100.00;166696.00;5027001;28;20046;-58
2022/07/18 07:27:14;;;;;;;5.93;3.03;;;;;;;23.42;100.00;166701.41;5018976;28;20057;-58
2022/07/18 07:29:40;;;;;;;3.70;1.30;;;;;;;23.51;100.00;166723.19;5012723;28;20018;-58
2022/07/18 07:32:05;;;;;;;6.70;2.35;;;;;;;23.49;100.00;166717.78;5033312;28;20040;-59
2022/07/18 07:34:31;;;;;;;5.43;2.55;;;;;;;23.50;100.00;166720.44;5032303;28;20025;-58
2022/07/18 07:36:56;;;;;;;7.03;3.30;;;;;;;23.58;100.00;166742.22;5033128;28;20079;-58
2022/07/18 07:39:21;;;;;;;2.63;1.52;;;;;;;23.85;100.00;166812.94;5029682;28;20010;-57
2022/07/18 07:41:47;;;;;;;7.45;2.13;;;;;;;24.12;100.00;166883.69;5013349;28;20025;-58
2022/07/18 07:44:12;;;;;;;2.83;1.65;;;;;;;24.20;100.00;166905.44;5027972;28;20025;-58
2022/07/18 07:46:37;;;;;;;4.10;1.67;;;;;;;24.35;100.00;166944.91;5023783;28;20045;-58
2022/07/18 07:49:03;;;;;;;2.75;1.40;;;;;;;24.50;99.63;166984.34;5019949;28;20025;-58
2022/07/18 07:51:28;;;;;;;6.72;3.03;;;;;;;24.68;96.03;167033.38;5011504;28;20033;-59
2022/07/18 07:53:54;;;;;;;7.53;1.60;;;;;;;24.98;93.14;167110.91;5032012;28;20491;-59
2022/07/18 07:56:19;;;;;;;2.97;1.70;;;;;;;-146.58;100.00;69501.63;5030695;28;20057;-58
2022/07/18 07:58:45;;;;;;;7.40;1.50;;;;;;;-146.58;100.00;69501.63;5032587;28;20028;-58
2022/07/18 08:01:11;;;;;;;4.32;1.75;;;;;;;-146.58;100.00;69501.63;5031583;28;20041;-58
2022/07/18 08:03:37;;;;;;;5.85;2.08;;;;;;;25.15;90.52;167155.78;5032694;28;20579;-59
2022/07/18 08:06:03;;;;;;;5.45;2.20;;;;;;;25.18;88.38;167163.97;5030967;28;20041;-58
2022/07/18 08:08:28;;;;;;;6.15;2.22;;;;;;;25.41;85.81;167223.91;5032557;28;20533;-58
2022/07/18 08:10:53;;;;;;;5.50;1.58;;;;;;;25.68;84.40;167294.66;5031356;28;20064;-58
2022/07/18 08:13:19;;;;;;;3.58;2.30;;;;;;;26.08;83.22;167400.88;5032081;28;20033;-58
2022/07/18 08:15:44;;;;;;;5.03;1.80;;;;;;;26.39;85.01;167482.56;5027273;28;20045;-58
2022/07/18 08:18:10;;;;;;;2.38;1.63;;;;;;;26.58;81.49;167534.28;5032453;28;20496;-59
2022/07/18 08:20:35;;;;;;;9.00;2.20;;;;;;;27.01;78.43;167647.38;5030831;28;20155;-58
2022/07/18 08:23:04;;;;;;;8.20;1.73;;;;;;;27.29;74.93;167720.88;5025393;28;20022;-59
2022/07/18 08:25:33;;;;;;;4.22;1.88;;;;;;;27.80;71.07;167854.41;5011422;28;20153;-58
2022/07/18 08:27:59;;;;;;;4.95;2.10;;;;;;;28.12;68.48;167938.94;5018912;28;20045;-58
2022/07/18 08:30:25;;;;;;;4.10;1.52;;;;;;;28.53;64.45;168046.59;5030597;28;20050;-59
2022/07/18 08:32:50;;;;;;;6.68;1.95;;;;;;;29.01;63.35;168173.38;5022382;28;20026;-58
2022/07/18 08:35:16;;;;;;;11.05;2.15;;;;;;;29.20;61.14;168225.16;5011569;28;20044;-58
2022/07/18 08:37:42;;;;;;;7.45;1.90;;;;;;;29.03;61.69;168180.19;5012561;28;20030;-58
2022/07/18 08:40:08;;;;;;;6.80;1.83;;;;;;;29.21;61.47;168226.56;5010981;28;20057;-58
2022/07/18 08:42:34;;;;;;;5.75;1.92;;;;;;;29.25;61.18;168237.44;5011954;28;20018;-58
2022/07/18 08:45:01;;;;;;;3.60;2.15;;;;;;;28.99;60.23;168169.31;5025164;28;20081;-59
2022/07/18 08:47:29;;;;;;;5.38;1.58;;;;;;;28.92;58.83;168150.22;5023646;28;20036;-59
2022/07/18 08:49:54;;;;;;;3.92;1.55;;;;;;;28.68;59.13;168086.09;5021311;28;20524;-58
2022/07/18 08:52:20;;;;;;;4.10;1.80;;;;;;;28.53;61.40;168046.59;5013083;28;20037;-58
2022/07/18 08:54:48;;;;;;;4.80;1.67;;;;;;;28.74;60.59;168102.53;5013010;28;20037;-58
2022/07/18 08:57:14;;;;;;;;;;;;;;;28.59;58.99;168062.94;5013120;28;20025;-58
2022/07/18 08:59:39;;;;;;;6.80;1.95;;;;;;;28.62;58.31;168071.13;5030310;28;20461;-58
2022/07/18 09:02:06;;;;;;;6.47;1.83;;;;;;;28.61;57.59;168068.41;5029759;28;20476;-58
2022/07/18 09:04:39;;;;;;;5.20;1.90;;;;;;;28.72;57.58;168097.06;5029124;28;20083;-58
2022/07/18 09:07:08;;;;;;;7.03;2.45;;;;;;;29.19;57.06;168221.09;5015634;28;20038;-58
2022/07/18 09:09:34;;;;;;;8.43;1.85;;;;;;;29.39;58.21;168275.66;5017166;28;20030;-59
2022/07/18 09:12:03;;;;;;;11.93;2.77;;;;;;;29.88;57.12;168403.81;5014398;28;20026;-59
2022/07/18 09:14:40;;;;;;;3.65;1.48;;;;;;;30.11;53.56;168463.88;5017434;28;20092;-58
2022/07/18 09:17:14;;;;;;;10.07;2.40;;;;;;;29.98;52.58;168431.13;5011721;28;20059;-59
2022/07/18 09:20:01;;;;;;;7.45;2.10;;;;;;;30.10;51.36;168461.13;5010049;28;20030;-59
2022/07/18 09:22:29;;;;;;;8.35;2.50;;;;;;;30.00;51.94;168435.25;5011271;28;20537;-59
2022/07/18 09:25:24;;;;;;;1.73;1.48;;;;;;;30.49;49.44;168564.78;5013555;28;20124;-59
2022/07/18 09:27:53;;;;;;;5.30;2.67;;;;;;;30.47;48.56;168559.31;5006315;28;20531;-59
2022/07/18 09:30:32;;;;;;;9.40;2.83;;;;;;;30.59;46.78;168592.09;5029363;28;20053;-59
2022/07/18 09:33:03;;;;;;;6.93;2.65;;;;;;;30.59;46.84;168592.09;5021857;28;20104;-59
2022/07/18 09:35:32;;;;;;;7.10;2.00;;;;;;;30.66;47.61;168609.84;5015226;28;20100;-59
2022/07/18 09:38:04;;;;;;;7.63;2.30;;;;;;;30.62;46.56;168600.28;5031291;28;20049;-59
2022/07/18 09:40:35;;;;;;;6.68;2.95;;;;;;;30.72;45.26;168624.84;5030145;28;20042;-59
2022/07/18 09:43:05;;;;;;;6.70;2.28;;;;;;;30.46;45.53;168556.59;5014178;28;20021;-59
2022/07/18 09:45:36;;;;;;;6.45;1.65;;;;;;;30.93;44.35;168682.13;5022770;28;20108;-59
2022/07/18 09:48:05;;;;;;;5.95;2.25;;;;;;;30.84;43.25;168657.56;5025390;28;20462;-59
2022/07/18 09:50:42;;;;;;;5.63;2.17;;;;;;;30.72;43.65;168624.84;5012778;28;20057;-58
2022/07/18 09:53:13;;;;;;;3.33;1.98;;;;;;;30.72;43.62;168624.84;5026579;28;20075;-59
2022/07/18 09:55:44;;;;;;;4.00;2.20;;;;;;;30.79;43.61;168645.28;5011704;28;20057;-59
2022/07/18 09:58:10;;;;;;;35.00;2.70;;;;;;;30.91;42.48;168676.66;5012894;28;20018;-59
2022/07/18 10:00:37;;;;;;;16.58;2.55;;;;;;;30.51;42.05;168571.66;5018404;28;20052;-59
2022/07/18 10:03:05;;;;;;;5.60;1.87;;;;;;;30.46;41.92;168556.59;5020315;28;20028;-59
2022/07/18 10:05:34;;;;;;;8.40;2.95;;;;;;;30.62;43.07;168598.91;5029309;28;20470;-59
2022/07/18 10:08:01;;;;;;;5.05;2.40;;;;;;;30.56;42.16;168583.94;5018714;28;20473;-59
2022/07/18 10:10:29;;;;;;;5.35;2.67;;;;;;;30.42;41.89;168545.69;5019773;28;20050;-59
2022/07/18 10:12:55;;;;;;;;;;;;;;;30.41;43.41;168542.97;5013696;28;20030;-59
2022/07/18 10:15:22;;;;;;;3.05;2.42;;;;;;;30.79;41.75;168643.94;5016389;28;19925;-59
2022/07/18 10:17:47;;;;;;;2.75;1.90;;;;;;;30.76;41.42;168637.09;5018186;28;20034;-59
2022/07/18 10:20:13;;;;;;;9.00;3.00;;;;;;;31.12;40.43;168731.28;5028349;28;20676;-59
2022/07/18 10:22:43;;;;;;;8.02;2.60;;;;;;;31.32;40.08;168785.81;5033406;28;20044;-59
2022/07/18 10:25:10;;;;;;;5.90;2.63;;;;;;;31.39;40.02;168803.59;5033251;28;20489;-58
2022/07/18 10:28:04;;;;;;;5.28;2.28;;;;;;;31.48;40.00;168826.75;5026542;28;20064;-58
2022/07/18 10:30:45;;;;;;;20.35;5.78;;;;;;;31.41;40.62;168807.66;5013361;28;20507;-59
2022/07/18 10:33:47;;;;;;;6.25;2.70;;;;;;;31.57;39.28;168851.34;5017787;28;20025;-59
2022/07/18 10:36:20;;;;;;;8.20;1.95;;;;;;;31.28;40.50;168774.94;5029155;28;20072;-59
2022/07/18 10:39:14;;;;;;;4.60;2.67;;;;;;;31.39;40.32;168802.25;5030769;28;20037;-59
2022/07/18 10:41:42;;;;;;;6.30;2.00;;;;;;;31.39;39.67;168802.25;5028352;28;20068;-58
2022/07/18 10:44:23;;;;;;;5.07;2.55;;;;;;;31.66;41.22;168874.56;5014477;28;20082;-58
2022/07/18 10:47:03;;;;;;;5.95;1.90;;;;;;;31.85;38.99;168925.06;5016438;28;21653;-59
2022/07/18 10:49:52;;;;;;;5.13;2.22;;;;;;;32.08;37.78;168985.09;5012665;28;20060;-58
2022/07/18 10:52:27;;;;;;;17.88;3.17;;;;;;;32.20;37.29;169017.88;5014336;28;20067;-59
2022/07/18 10:55:01;;;;;;;6.55;2.72;;;;;;;32.12;37.25;168997.38;5013195;28;20034;-59
2022/07/18 10:57:26;;;;;;;7.55;2.40;;;;;;;32.00;38.89;168963.25;5014369;28;20055;-58
2022/07/18 11:00:00;;;;;;;7.80;2.35;;;;;;;32.16;38.44;169005.59;5014063;28;20040;-58
2022/07/18 11:02:34;;;;;;;3.30;1.65;;;;;;;32.37;36.35;169062.97;5013818;28;20033;-58
2022/07/18 11:05:00;;;;;;;8.15;2.80;;;;;;;31.93;35.62;168946.88;5016419;28;20049;-59
2022/07/18 11:07:25;;;;;;;5.70;1.63;;;;;;;31.64;35.76;168870.44;5032329;28;20611;-59
2022/07/18 11:09:50;;;;;;;3.55;2.38;;;;;;;31.92;35.70;168944.16;5017993;28;20038;-59
2022/07/18 11:12:28;;;;;;;6.05;2.42;;;;;;;31.74;34.98;168895.06;5020500;28;20477;-58
2022/07/18 11:15:07;;;;;;;;;;;;;;;32.21;36.26;169020.63;5020219;28;20129;-58
2022/07/18 11:17:51;;;;;;;3.50;2.75;;;;;;;31.78;35.99;168905.94;5033724;28;19916;-58
2022/07/18 11:20:24;;;;;;;5.18;2.40;;;;;;;32.67;34.68;169140.72;5032483;28;20037;-58
2022/07/18 11:22:50;;;;;;;4.90;2.30;;;;;;;32.90;34.44;169203.59;5034007;28;20040;-58